Bei Facebook empfehlenBei Twitter postenGoogle plusPinterest

Das Wetter im Erzgebirge am 14.02.2016

Wetter und Klima am 14.02.2016 Holzhau im Erzgebirge (630m ü.NN)
Letzte gemessene Temperatur und Uhrzeit der Messung23:45:00 Uhr2.30 °C
Temperatur (Maximum / Höchstwert) und Uhrzeit der Messung11:45:00 Uhr6.60 °C
Temperatur (Minimum / Tiefstwert) und Uhrzeit der Messung03:15:000.70 °C
Errechneter Absolutwert der Temperaturschwankungen zwischen Tmin und Tmax des Tages5.90 K
Errechnete Tagesmitteltemperatur2.91979 °C
Gesamt - Niederschlag des Tages (in flüssiger Form)1.04 Liter / m²
Luftdruck (Maximum / Höchstwert) und Zeitpunkt der Messung23:45:00 Uhr993.60 hPa
Luftdruck (Minimum / Tiefstwert) und Zeitpunkt der Messung07:45:00 Uhr983.90 hPa
Errechneter Absolutwert der Luftdruckschwankungen des Tages9.70 hPa
Höchste gemessene Windgeschwindigkeit und Uhrzeit der Messung13:45:00 Uhr10.08 km/h
Errechnete Windhäufigkeit in Relation zu den Messwerten des Tages28.12500 %
Niedrigste Windkühle (Windchill) und Zeitpunkt der Messung04:45:00 Uhr-2.00 °C
Taupunkt (Maximum / Höchstwert) und Uhrzeit der Messung11:45:00 Uhr5.10 °C
Taupunkt (Minimum / Tiefstwert) und Uhrzeit der Messung02:00:00-0.80 °C
Anzahl der automatisch eingelesenen Messwerte 96

Detaillierte Wetter- und Klima- Messwerte für den 14.02.2016 in Holzhau im Erzgebirge (630m ü.NN)
ZeitTemperaturLuftdruckRel. LuftfeuchteWindWindrichtungWindchillTaupunktNiederschlag l/m²
23:45:002.30 °C993.60 hPa93.00 %1.30 °C1.04
23:30:002.30 °C993.10 hPa93.00 %1.30 °C1.04
23:15:002.40 °C993.00 hPa92.00 %1.20 °C1.04
23:00:002.40 °C992.90 hPa92.00 %1.20 °C1.04
22:45:002.40 °C992.80 hPa92.00 %1.20 °C1.04
22:30:002.50 °C992.70 hPa92.00 %1.30 °C1.04
22:15:002.40 °C992.40 hPa92.00 %1.20 °C1.04
22:00:002.30 °C992.10 hPa92.00 %1.10 °C1.04
21:45:002.30 °C991.90 hPa92.00 %1.10 °C1.04
21:30:002.40 °C991.80 hPa92.00 %1.20 °C1.04
21:15:002.40 °C991.50 hPa91.00 %1.10 °C0.52
21:00:002.30 °C991.10 hPa91.00 %1.00 °C0.52
20:45:002.20 °C991.10 hPa91.00 %0.90 °C0.52
20:30:002.20 °C991.00 hPa91.00 %0.90 °C0.52
20:15:002.20 °C990.90 hPa90.00 %0.70 °C0.52
20:00:002.30 °C990.60 hPa90.00 %0.80 °C0.52
19:45:002.30 °C990.30 hPa90.00 %0.80 °C0.52
19:30:002.40 °C990.20 hPa89.00 %0.80 °C0.52
19:15:002.60 °C990.10 hPa89.00 %1.00 °C0.52
19:00:002.60 °C989.90 hPa89.00 %1.00 °C0.52
18:45:002.80 °C989.80 hPa88.00 %1.00 °C0.52
18:30:002.90 °C989.30 hPa88.00 %1.10 °C0.52
18:15:003.30 °C989.40 hPa87.00 %3.24 km/hOSO3.30 °C1.30 °C0.52
18:00:003.50 °C989.20 hPa87.00 %1.50 °C 
17:45:003.80 °C989.10 hPa86.00 %1.70 °C 
17:30:003.90 °C988.80 hPa86.00 %1.80 °C 
17:15:004.20 °C988.60 hPa85.00 %1.90 °C 
17:00:004.30 °C988.60 hPa85.00 %2.00 °C 
16:45:004.50 °C988.00 hPa85.00 %2.20 °C 
16:30:004.80 °C987.90 hPa85.00 %2.50 °C 
16:15:004.80 °C987.90 hPa85.00 %2.50 °C 
16:00:004.90 °C987.90 hPa85.00 %2.60 °C 
15:45:005.30 °C987.50 hPa86.00 %3.20 °C 
15:30:005.00 °C987.40 hPa86.00 %3.60 km/hSW5.00 °C2.90 °C 
15:15:004.70 °C987.40 hPa86.00 %2.60 °C 
15:00:004.90 °C987.30 hPa86.00 %2.80 °C 
14:45:005.10 °C987.40 hPa86.00 %3.00 °C 
14:30:005.30 °C987.20 hPa85.00 %3.96 km/hSSW5.30 °C3.00 °C 
14:15:005.80 °C987.10 hPa85.00 %5.76 km/hSSW4.70 °C3.50 °C 
14:00:006.10 °C986.80 hPa87.00 %8.28 km/hSO4.40 °C4.10 °C 
13:45:005.80 °C986.50 hPa87.00 %10.08 km/hSO3.60 °C3.80 °C 
13:30:005.70 °C986.40 hPa86.00 %6.84 km/hSSW4.30 °C3.50 °C 
13:15:005.90 °C986.20 hPa87.00 %3.90 °C 
13:00:005.90 °C986.40 hPa88.00 %4.10 °C 
12:45:005.30 °C986.30 hPa88.00 %3.50 °C 
12:30:005.10 °C986.20 hPa87.00 %3.10 °C 
12:15:005.60 °C986.30 hPa88.00 %2.52 km/hSW5.60 °C3.80 °C 
12:00:006.20 °C986.00 hPa88.00 %4.40 °C 
11:45:006.60 °C986.10 hPa90.00 %5.10 °C 
11:30:006.30 °C986.10 hPa90.00 %3.96 km/hSW6.30 °C4.80 °C 
11:15:006.20 °C985.70 hPa91.00 %4.80 °C 
11:00:005.30 °C985.50 hPa92.00 %4.10 °C 
10:45:004.50 °C985.80 hPa92.00 %3.30 °C 
10:30:004.10 °C985.60 hPa92.00 %2.90 °C 
10:15:004.10 °C985.50 hPa92.00 %4.32 km/hWSW4.10 °C2.90 °C 
10:00:003.80 °C985.20 hPa92.00 %2.60 °C 
09:45:003.90 °C985.30 hPa93.00 %6.84 km/hSSO2.20 °C2.90 °C 
09:30:003.80 °C984.60 hPa93.00 %2.80 °C 
09:15:003.30 °C984.40 hPa93.00 %2.30 °C 
09:00:002.90 °C984.40 hPa93.00 %6.48 km/hSSW1.10 °C1.90 °C 
08:45:002.60 °C984.30 hPa93.00 %1.60 °C 
08:30:002.30 °C984.40 hPa93.00 %5.40 km/hSSO0.90 °C1.30 °C 
08:15:001.80 °C984.30 hPa93.00 %7.20 km/hS-0.40 °C0.80 °C 
08:00:001.40 °C984.00 hPa93.00 %0.40 °C 
07:45:001.30 °C983.90 hPa92.00 %0.10 °C 
07:30:001.40 °C983.90 hPa92.00 %0.20 °C 
07:15:001.30 °C984.00 hPa92.00 %0.10 °C 
07:00:001.30 °C984.10 hPa92.00 %0.10 °C 
06:45:001.30 °C984.10 hPa92.00 %0.10 °C 
06:30:001.40 °C984.00 hPa92.00 %0.20 °C 
06:15:001.30 °C984.00 hPa92.00 %0.10 °C 
06:00:001.30 °C984.20 hPa92.00 %0.10 °C 
05:45:001.30 °C984.20 hPa92.00 %0.10 °C 
05:30:001.30 °C984.20 hPa92.00 %0.10 °C 
05:15:001.30 °C984.20 hPa92.00 %0.10 °C 
05:00:001.20 °C984.20 hPa91.00 %8.64 km/hO-1.50 °C-0.10 °C 
04:45:001.10 °C984.30 hPa91.00 %10.08 km/hS-2.00 °C-0.20 °C 
04:30:001.00 °C984.20 hPa91.00 %-0.30 °C 
04:15:001.00 °C984.30 hPa91.00 %-0.30 °C 
04:00:000.90 °C984.30 hPa91.00 %-0.40 °C 
03:45:000.90 °C984.00 hPa91.00 %-0.40 °C 
03:30:000.90 °C984.30 hPa91.00 %4.68 km/hSSO0.90 °C-0.40 °C 
03:15:000.70 °C984.60 hPa91.00 %4.68 km/hSSO0.70 °C-0.60 °C 
03:00:000.70 °C984.50 hPa91.00 %-0.60 °C 
02:45:000.80 °C984.70 hPa90.00 %5.04 km/hSSO-0.70 °C-0.60 °C 
02:30:000.70 °C984.60 hPa90.00 %1.44 km/hONO0.70 °C-0.70 °C 
02:15:000.80 °C984.50 hPa90.00 %-0.60 °C 
02:00:000.80 °C984.60 hPa89.00 %-0.80 °C 
01:45:000.80 °C984.70 hPa89.00 %5.76 km/hNO-1.00 °C-0.80 °C 
01:30:000.90 °C985.00 hPa89.00 %2.52 km/hNO0.90 °C-0.70 °C 
01:15:000.90 °C985.10 hPa89.00 %6.12 km/hSO-1.00 °C-0.70 °C 
01:00:001.00 °C985.20 hPa88.00 %2.16 km/hOSO1.00 °C-0.80 °C 
00:45:001.30 °C985.30 hPa88.00 %9.72 km/hONO-1.70 °C-0.50 °C 
00:30:001.30 °C985.30 hPa87.00 %2.52 km/hSO1.30 °C-0.60 °C 
00:15:001.30 °C985.50 hPa87.00 %-0.60 °C 
00:00:001.30 °C985.50 hPa87.00 %5.76 km/hO-0.40 °C-0.60 °C 

Permanenter Link zu dieser Seite: Wetter im Erzgebirge am 14.02.2016
Performance-Info: Die Erstellung der Seite / Statistik(en) / Tabelle(n) erforderte 5 Datenbankserver-Abfrage(n) und dauerte 101 Millisekunden. (Dieser Messwert ist von der Gesamt-Auslastung des Servers abhängig.)
Erzgebirge - Wetter | Erzgebirge - Wetter (Mobilgeräte) | Komplette Klimadatenbank